createdAt,value
2018-12-21T00:01:28.543Z,4.40
2018-12-21T00:04:02.027Z,4.40
2018-12-21T00:06:39.536Z,4.40
2018-12-21T00:09:13.024Z,4.50
2018-12-21T00:11:50.513Z,4.50
2018-12-21T00:14:24.023Z,4.50
2018-12-21T00:17:03.335Z,4.50
2018-12-21T00:19:36.843Z,4.60
2018-12-21T00:22:10.351Z,4.60
2018-12-21T00:24:43.855Z,4.70
2018-12-21T00:59:17.868Z,4.70
2018-12-21T01:01:55.965Z,4.70
2018-12-21T01:04:29.471Z,4.70
2018-12-21T01:07:06.213Z,4.70
2018-12-21T01:09:39.719Z,4.80
2018-12-21T01:12:17.945Z,4.80
2018-12-21T01:14:51.540Z,4.80
2018-12-21T01:17:35.109Z,4.80
2018-12-21T01:20:09.011Z,4.80
2018-12-21T01:22:46.776Z,4.80
2018-12-21T01:25:20.280Z,4.80
2018-12-21T01:27:53.741Z,4.80
2018-12-21T01:30:27.517Z,4.80
2018-12-21T01:33:07.038Z,4.80
2018-12-21T01:35:40.533Z,4.80
2018-12-21T01:38:14.003Z,4.80
2018-12-21T01:40:53.374Z,4.80
2018-12-21T01:43:26.844Z,4.80
2018-12-21T01:46:04.261Z,4.90
2018-12-21T01:48:37.738Z,4.90
2018-12-21T01:51:20.520Z,4.90
2018-12-21T01:56:39.773Z,5.00
2018-12-21T02:05:13.205Z,5.00
2018-12-21T02:07:47.684Z,5.00
2018-12-21T02:10:21.185Z,5.00
2018-12-21T02:12:55.591Z,5.00
2018-12-21T02:15:29.077Z,5.00
2018-12-21T02:18:07.526Z,5.00
2018-12-21T02:20:41.042Z,5.00
2018-12-21T02:23:22.018Z,5.00
2018-12-21T02:25:55.510Z,5.00
2018-12-21T02:28:34.846Z,5.00
2018-12-21T02:31:08.327Z,5.10
2018-12-21T02:33:47.581Z,5.00
2018-12-21T02:36:21.060Z,5.00
2018-12-21T02:38:54.515Z,5.10
2018-12-21T02:41:38.951Z,5.00
2018-12-21T02:44:12.419Z,5.00
2018-12-21T02:46:51.337Z,5.00
2018-12-21T02:49:24.808Z,5.00
2018-12-21T02:52:08.726Z,5.00
2018-12-21T02:54:42.200Z,5.00
2018-12-21T02:57:17.726Z,4.90
2018-12-21T02:59:51.192Z,5.00
2018-12-21T03:02:24.704Z,5.00
2018-12-21T03:04:58.187Z,5.00
2018-12-21T03:07:33.654Z,5.00
2018-12-21T03:10:07.524Z,5.00
2018-12-21T03:12:57.029Z,5.00
2018-12-21T03:15:30.492Z,5.00
2018-12-21T03:18:14.375Z,5.00
2018-12-21T03:20:48.073Z,5.00
2018-12-21T03:23:24.977Z,5.00
2018-12-21T03:25:58.442Z,5.10
2018-12-21T03:28:41.442Z,5.10
2018-12-21T03:31:15.172Z,5.10
2018-12-21T03:33:52.871Z,5.10
2018-12-21T03:36:26.344Z,5.10
2018-12-21T03:41:51.225Z,5.10
2018-12-21T03:50:06.143Z,5.30
2018-12-21T03:58:48.714Z,5.30
2018-12-21T04:01:34.822Z,5.30
2018-12-21T04:04:08.306Z,5.30
2018-12-21T04:06:49.168Z,5.40
2018-12-21T04:18:39.505Z,5.30
2018-12-21T04:21:13.945Z,5.30
2018-12-21T04:29:37.505Z,5.40
2018-12-21T04:35:27.602Z,5.50
2018-12-21T04:38:10.534Z,5.40
2018-12-21T04:40:44.021Z,5.40
2018-12-21T04:46:34.220Z,5.30
2018-12-21T04:49:07.685Z,5.30
2018-12-21T04:51:43.182Z,5.20
2018-12-21T04:54:16.654Z,5.30
2018-12-21T04:56:52.118Z,5.30
2018-12-21T04:59:25.577Z,5.30
2018-12-21T05:02:00.208Z,5.30
2018-12-21T05:04:33.699Z,5.30
2018-12-21T05:07:12.990Z,5.30
2018-12-21T05:09:46.712Z,5.30
2018-12-21T05:15:26.117Z,5.40
2018-12-21T05:17:59.600Z,5.10
2018-12-21T05:20:40.013Z,5.40
2018-12-21T05:23:13.520Z,5.40
2018-12-21T05:25:51.550Z,5.40
2018-12-21T05:28:25.056Z,5.40
2018-12-21T05:31:02.838Z,5.40
2018-12-21T05:33:36.329Z,5.30
2018-12-21T05:39:01.400Z,5.30
2018-12-21T05:44:48.252Z,5.30
2018-12-21T05:53:05.118Z,5.30
2018-12-21T05:55:51.266Z,5.30
2018-12-21T06:18:32.209Z,5.40
2018-12-21T06:21:07.627Z,5.30
2018-12-21T06:23:41.106Z,5.40
2018-12-21T06:26:16.818Z,5.40
2018-12-21T06:28:50.323Z,5.40
2018-12-21T06:31:29.103Z,5.40
2018-12-21T06:34:02.613Z,5.40
2018-12-21T06:36:36.333Z,5.40
2018-12-21T06:39:09.843Z,5.40
2018-12-21T06:41:48.644Z,5.40
2018-12-21T06:44:22.141Z,5.40
2018-12-21T06:46:55.616Z,5.40
2018-12-21T06:49:30.516Z,5.40
2018-12-21T06:52:03.978Z,5.40
2018-12-21T06:54:37.696Z,5.50
2018-12-21T06:57:11.141Z,5.50
2018-12-21T06:59:44.896Z,5.50
2018-12-21T07:02:24.101Z,5.50
2018-12-21T07:04:57.627Z,5.50
2018-12-21T07:07:31.907Z,5.50
2018-12-21T07:10:08.387Z,5.50
2018-12-21T07:12:43.126Z,5.50
2018-12-21T07:15:16.607Z,5.50
2018-12-21T07:17:52.077Z,5.60
2018-12-21T07:20:25.608Z,5.50
2018-12-21T07:23:00.138Z,5.50
2018-12-21T07:25:33.603Z,5.50
2018-12-21T07:28:09.077Z,5.50
2018-12-21T07:30:42.559Z,5.40
2018-12-21T07:33:19.215Z,5.40
2018-12-21T07:35:52.683Z,5.40
2018-12-21T07:38:31.969Z,5.50
2018-12-21T07:41:05.429Z,5.50
2018-12-21T07:43:46.367Z,5.50
2018-12-21T07:46:19.833Z,5.50
2018-12-21T07:48:53.324Z,5.50
2018-12-21T07:51:31.529Z,5.50
2018-12-21T07:54:05.018Z,5.50
2018-12-21T07:56:39.429Z,5.50
2018-12-21T07:59:12.915Z,5.50
2018-12-21T08:01:57.770Z,5.50
2018-12-21T08:04:31.269Z,5.50
2018-12-21T08:07:08.280Z,5.50
2018-12-21T08:09:41.769Z,5.50
2018-12-21T08:12:22.274Z,5.40
2018-12-21T08:14:55.774Z,5.40
2018-12-21T08:17:31.195Z,5.40
2018-12-21T08:20:05.197Z,5.40
2018-12-21T08:22:44.895Z,5.30
2018-12-21T08:25:18.398Z,5.30
2018-12-21T08:27:56.620Z,5.30
2018-12-21T08:30:39.446Z,5.30
2018-12-21T08:33:12.877Z,5.30
2018-12-21T08:35:46.329Z,5.30
2018-12-21T08:38:19.757Z,5.30
2018-12-21T08:40:53.212Z,5.30
2018-12-21T08:43:26.645Z,5.30
2018-12-21T08:49:11.557Z,5.30
2018-12-21T09:06:37.374Z,5.40
2018-12-21T09:09:16.548Z,5.40
2018-12-21T09:11:50.549Z,5.40
2018-12-21T09:14:36.733Z,5.40
2018-12-21T09:17:10.200Z,5.50
2018-12-21T09:19:43.688Z,5.40
2018-12-21T09:22:18.108Z,5.50
2018-12-21T09:24:51.616Z,5.50
2018-12-21T09:27:27.097Z,5.50
2018-12-21T09:30:00.584Z,5.50
2018-12-21T09:32:36.006Z,5.60
2018-12-21T09:35:09.611Z,5.60
2018-12-21T09:40:42.728Z,5.60
2018-12-21T09:43:16.204Z,5.70
2018-12-21T09:45:49.743Z,5.70
2018-12-21T09:48:23.342Z,5.70
2018-12-21T09:50:56.859Z,5.70
2018-12-21T09:53:41.804Z,5.70
2018-12-21T09:56:15.320Z,5.80
2018-12-21T09:58:55.599Z,5.80
2018-12-21T10:01:29.103Z,5.90
2018-12-21T10:04:06.110Z,5.80
2018-12-21T10:06:39.605Z,5.80
2018-12-21T10:09:24.917Z,5.80
2018-12-21T10:11:58.500Z,5.80
2018-12-21T10:17:30.459Z,5.90
2018-12-21T10:20:04.524Z,5.90
2018-12-21T10:22:45.485Z,5.90
2018-12-21T10:25:20.321Z,6.00
2018-12-21T10:27:56.182Z,6.00
2018-12-21T10:30:29.683Z,6.00
2018-12-21T10:33:16.528Z,6.00
2018-12-21T10:35:49.954Z,6.00
2018-12-21T10:38:23.419Z,6.00
2018-12-21T10:40:56.846Z,6.00
2018-12-21T10:43:30.295Z,6.10
2018-12-21T10:49:08.445Z,6.10
2018-12-21T10:51:41.904Z,6.10
2018-12-21T10:54:35.271Z,6.10
2018-12-21T10:57:08.778Z,6.10
2018-12-21T10:59:43.626Z,6.10
2018-12-21T11:02:17.694Z,6.10
2018-12-21T11:04:51.286Z,6.10
2018-12-21T11:07:24.768Z,6.20
2018-12-21T11:10:00.304Z,6.20
2018-12-21T11:12:33.970Z,6.20
2018-12-21T11:15:12.414Z,6.20
2018-12-21T11:17:45.892Z,6.30
2018-12-21T11:20:23.450Z,6.30
2018-12-21T11:22:56.927Z,6.30
2018-12-21T11:25:36.804Z,6.30
2018-12-21T11:28:10.285Z,6.30
2018-12-21T11:30:45.830Z,6.30
2018-12-21T11:33:19.350Z,6.30
2018-12-21T11:36:00.059Z,6.30
2018-12-21T11:38:33.533Z,6.30
2018-12-21T11:41:10.174Z,6.30
2018-12-21T11:43:43.643Z,6.30
2018-12-21T11:46:19.079Z,6.30
2018-12-21T11:48:53.773Z,6.30
2018-12-21T11:51:27.617Z,6.30
2018-12-21T11:54:01.085Z,6.30
2018-12-21T11:56:35.516Z,6.40
2018-12-21T11:59:09.347Z,6.40
2018-12-21T12:01:53.472Z,6.40
2018-12-21T12:04:26.971Z,6.40
2018-12-21T12:07:03.877Z,6.40
2018-12-21T12:09:37.361Z,6.50
2018-12-21T12:12:21.350Z,6.50
2018-12-21T12:14:54.833Z,6.40
2018-12-21T12:17:32.890Z,6.40
2018-12-21T12:20:06.800Z,6.50
2018-12-21T12:22:51.128Z,6.50
2018-12-21T12:25:24.605Z,6.50
2018-12-21T12:27:58.141Z,6.50
2018-12-21T12:30:31.591Z,6.60
2018-12-21T12:33:10.784Z,6.60
2018-12-21T12:35:44.240Z,6.60
2018-12-21T12:38:25.122Z,6.60
2018-12-21T12:41:06.337Z,6.60
2018-12-21T12:43:34.109Z,6.60
2018-12-21T12:46:10.252Z,6.60
2018-12-21T12:48:43.744Z,6.60
2018-12-21T12:51:17.228Z,6.50
2018-12-21T12:53:59.024Z,6.50
2018-12-21T12:56:32.483Z,6.50
2018-12-21T12:59:06.965Z,6.50
2018-12-21T13:01:40.490Z,6.50
2018-12-21T13:04:20.051Z,6.50
2018-12-21T13:06:53.511Z,6.40
2018-12-21T13:09:37.784Z,6.40
2018-12-21T13:12:11.269Z,6.40
2018-12-21T13:14:44.767Z,6.40
2018-12-21T13:17:18.219Z,6.40
2018-12-21T13:19:56.352Z,6.40
2018-12-21T13:22:29.824Z,6.40
2018-12-21T13:25:11.246Z,6.40
2018-12-21T13:27:38.880Z,6.40
2018-12-21T13:30:12.370Z,6.40
2018-12-21T13:32:52.614Z,6.40
2018-12-21T13:35:26.100Z,6.40
2018-12-21T13:38:11.454Z,6.30
2018-12-21T13:40:45.290Z,6.30
2018-12-21T13:43:20.794Z,6.30
2018-12-21T13:45:54.291Z,6.30
2018-12-21T13:48:33.343Z,6.30
2018-12-21T13:51:06.824Z,6.30
2018-12-21T13:53:40.304Z,6.30
2018-12-21T13:56:21.629Z,6.30
2018-12-21T13:58:55.084Z,6.30
2018-12-21T14:01:33.100Z,6.30
2018-12-21T14:04:06.553Z,6.30
2018-12-21T14:06:44.394Z,6.20
2018-12-21T14:09:17.873Z,6.20
2018-12-21T14:11:53.751Z,6.20
2018-12-21T14:14:27.249Z,6.20
2018-12-21T14:17:12.737Z,6.20
2018-12-21T14:19:46.220Z,6.20
2018-12-21T14:22:20.767Z,6.20
2018-12-21T14:24:54.243Z,6.20
2018-12-21T14:27:29.827Z,6.20
2018-12-21T14:30:03.500Z,6.20
2018-12-21T14:32:39.102Z,6.20
2018-12-21T14:35:12.603Z,6.20
2018-12-21T14:37:53.883Z,6.20
2018-12-21T14:40:27.356Z,6.20
2018-12-21T14:43:13.327Z,6.20
2018-12-21T14:45:46.798Z,6.20
2018-12-21T14:48:21.237Z,6.20
2018-12-21T14:50:54.707Z,6.20
2018-12-21T14:53:28.205Z,6.20
2018-12-21T14:56:01.671Z,6.20
2018-12-21T14:58:43.274Z,6.20
2018-12-21T15:01:16.967Z,6.20
2018-12-21T15:03:57.030Z,6.10
2018-12-21T15:06:31.095Z,6.20
2018-12-21T15:09:10.278Z,6.20
2018-12-21T15:11:43.845Z,6.20
2018-12-21T15:14:22.743Z,6.20
2018-12-21T15:16:56.472Z,6.20
2018-12-21T15:19:33.511Z,6.20
2018-12-21T15:22:07.901Z,6.20
2018-12-21T15:24:49.576Z,6.20
2018-12-21T15:27:23.070Z,6.20
2018-12-21T15:33:10.538Z,6.20
2018-12-21T15:35:43.992Z,6.20
2018-12-21T15:47:13.184Z,6.20
2018-12-21T15:49:46.682Z,6.20
2018-12-21T15:58:16.275Z,6.20
2018-12-21T16:09:48.536Z,6.20
2018-12-21T16:12:26.302Z,6.20
2018-12-21T16:15:03.752Z,6.20
2018-12-21T16:17:41.666Z,6.20
2018-12-21T16:20:15.596Z,6.10
2018-12-21T16:22:54.810Z,6.20
2018-12-21T16:25:28.361Z,6.20
2018-12-21T16:28:05.463Z,6.20
2018-12-21T16:30:38.968Z,6.10
2018-12-21T16:33:13.395Z,6.10
2018-12-21T16:35:46.924Z,6.20
2018-12-21T16:38:26.788Z,6.20
2018-12-21T16:41:00.270Z,6.20
2018-12-21T16:43:35.004Z,6.20
2018-12-21T16:46:08.475Z,6.20
2018-12-21T16:48:42.080Z,6.20
2018-12-21T16:51:15.578Z,6.20
2018-12-21T16:54:00.478Z,6.20
2018-12-21T16:56:33.959Z,6.20
2018-12-21T16:59:07.451Z,6.20
2018-12-21T17:01:45.622Z,6.20
2018-12-21T17:04:19.130Z,6.20
2018-12-21T17:06:56.623Z,6.20
2018-12-21T17:09:30.117Z,6.20
2018-12-21T17:12:03.885Z,6.10
2018-12-21T17:14:37.395Z,6.20
2018-12-21T17:17:20.782Z,6.20
2018-12-21T17:19:54.704Z,6.10
2018-12-21T17:22:30.209Z,6.20
2018-12-21T17:25:03.987Z,6.20
2018-12-21T17:27:38.433Z,6.10
2018-12-21T17:30:12.021Z,6.20
2018-12-21T17:32:50.657Z,6.20
2018-12-21T17:35:24.163Z,6.20
2018-12-21T17:37:59.601Z,6.20
2018-12-21T17:40:33.101Z,6.20
2018-12-21T17:43:09.959Z,6.20
2018-12-21T17:45:43.465Z,6.20
2018-12-21T17:48:21.685Z,6.20
2018-12-21T17:50:55.171Z,6.20
2018-12-21T17:53:31.640Z,6.20
2018-12-21T17:56:05.142Z,6.20
2018-12-21T17:58:38.610Z,6.20
2018-12-21T18:01:14.125Z,6.20
2018-12-21T18:03:50.858Z,6.10
2018-12-21T18:06:27.931Z,6.10
2018-12-21T18:09:01.408Z,6.10
2018-12-21T18:11:41.193Z,6.10
2018-12-21T18:14:14.656Z,6.10
2018-12-21T18:16:48.767Z,6.10
2018-12-21T18:19:22.216Z,6.10
2018-12-21T18:22:00.110Z,6.10
2018-12-21T18:24:33.566Z,6.10
2018-12-21T18:27:13.324Z,6.10
2018-12-21T18:29:46.796Z,6.10
2018-12-21T18:32:20.477Z,6.10
2018-12-21T18:34:54.180Z,6.10
2018-12-21T18:43:25.566Z,6.20
2018-12-21T18:45:59.129Z,6.10
2018-12-21T18:48:38.278Z,6.10
2018-12-21T18:51:11.729Z,6.10
2018-12-21T18:53:50.185Z,6.10
2018-12-21T18:56:23.952Z,6.10
2018-12-21T18:58:57.464Z,6.10
2018-12-21T19:01:30.930Z,6.20
2018-12-21T19:04:15.764Z,6.20
2018-12-21T19:06:49.237Z,6.20
2018-12-21T19:09:24.707Z,6.20
2018-12-21T19:11:58.188Z,6.20
2018-12-21T19:14:31.686Z,6.20
2018-12-21T19:17:05.248Z,6.20
2018-12-21T19:19:44.032Z,6.20
2018-12-21T19:22:17.512Z,6.20
2018-12-21T19:24:57.452Z,6.20
2018-12-21T19:27:30.919Z,6.20
2018-12-21T19:30:18.587Z,6.20
2018-12-21T19:32:52.081Z,6.20
2018-12-21T19:35:31.065Z,6.20
2018-12-21T19:38:04.531Z,6.20
2018-12-21T19:40:39.045Z,6.20
2018-12-21T19:43:12.552Z,6.30
2018-12-21T19:45:55.751Z,6.30
2018-12-21T19:48:29.241Z,6.40
2018-12-21T19:51:04.704Z,6.40
2018-12-21T19:53:38.159Z,6.40
2018-12-21T19:56:15.583Z,6.40
2018-12-21T20:04:58.375Z,6.40
2018-12-21T20:07:31.839Z,6.40
2018-12-21T20:10:17.135Z,6.40
2018-12-21T20:12:50.647Z,6.40
2018-12-21T20:15:26.195Z,6.40
2018-12-21T20:18:01.011Z,6.40
2018-12-21T20:20:34.492Z,6.40
2018-12-21T20:23:08.008Z,6.50
2018-12-21T20:25:47.816Z,6.50
2018-12-21T20:28:21.322Z,6.50
2018-12-21T20:30:54.825Z,6.50
2018-12-21T20:33:28.305Z,6.50
2018-12-21T20:36:03.151Z,6.60
2018-12-21T20:38:36.613Z,6.60
2018-12-21T20:41:10.354Z,6.60
2018-12-21T20:43:43.848Z,6.60
2018-12-21T20:46:19.653Z,6.60
2018-12-21T20:48:53.189Z,6.70
2018-12-21T20:51:33.026Z,6.70
2018-12-21T20:54:06.549Z,6.70
2018-12-21T20:56:57.918Z,6.70
2018-12-21T20:59:31.413Z,6.70
2018-12-21T21:02:29.021Z,6.80
2018-12-21T21:05:06.383Z,6.80
2018-12-21T21:07:39.902Z,6.80
2018-12-21T21:10:19.111Z,6.80
2018-12-21T21:12:52.570Z,6.90
2018-12-21T21:15:27.043Z,6.90
2018-12-21T21:18:01.475Z,6.90
2018-12-21T21:20:37.202Z,7.00
2018-12-21T21:23:10.672Z,7.10
2018-12-21T21:25:47.787Z,7.30
2018-12-21T21:28:21.250Z,7.40
2018-12-21T21:30:54.745Z,7.50
2018-12-21T21:33:28.211Z,7.60
2018-12-21T21:36:11.548Z,7.70
2018-12-21T21:38:45.016Z,7.80
2018-12-21T21:41:19.560Z,8.00
2018-12-21T21:43:53.860Z,8.10
2018-12-21T21:46:30.353Z,8.20
2018-12-21T21:49:03.825Z,8.20
2018-12-21T21:51:39.477Z,8.30
2018-12-21T21:54:12.954Z,8.40
2018-12-21T21:56:50.767Z,8.40
2018-12-21T21:59:24.239Z,8.50
2018-12-21T22:02:00.038Z,8.50
2018-12-21T22:04:35.650Z,8.40
2018-12-21T22:07:09.151Z,8.50
2018-12-21T22:09:42.854Z,8.50
2018-12-21T22:12:16.350Z,8.40
2018-12-21T22:14:57.051Z,8.50
2018-12-21T22:17:30.530Z,8.50
2018-12-21T22:20:08.101Z,8.50
2018-12-21T22:22:41.581Z,8.50
2018-12-21T22:25:17.048Z,8.40
2018-12-21T22:27:50.535Z,8.50
2018-12-21T22:30:28.147Z,8.40
2018-12-21T22:33:01.660Z,8.40
2018-12-21T22:35:39.133Z,8.40
2018-12-21T22:38:12.620Z,8.40
2018-12-21T22:40:47.101Z,8.40
2018-12-21T22:43:20.598Z,8.40
2018-12-21T22:45:58.870Z,8.30
2018-12-21T22:48:32.361Z,8.30
2018-12-21T22:51:06.799Z,8.30
2018-12-21T22:53:40.304Z,8.30
2018-12-21T22:56:19.505Z,8.30
2018-12-21T22:58:53.004Z,8.20
2018-12-21T23:01:32.350Z,8.20
2018-12-21T23:04:05.896Z,8.20
2018-12-21T23:06:40.383Z,8.10
2018-12-21T23:09:13.884Z,8.10
2018-12-21T23:11:51.489Z,8.10
2018-12-21T23:14:25.003Z,8.00
2018-12-21T23:17:00.519Z,8.00
2018-12-21T23:19:34.038Z,8.00
2018-12-21T23:22:12.331Z,7.90
2018-12-21T23:24:46.036Z,7.90
2018-12-21T23:27:33.263Z,7.80
2018-12-21T23:30:08.374Z,7.70
2018-12-21T23:33:00.104Z,7.60
2018-12-21T23:35:33.631Z,7.50
2018-12-21T23:38:27.223Z,7.40
2018-12-21T23:41:01.107Z,7.40
2018-12-21T23:43:39.481Z,7.30
2018-12-21T23:46:10.140Z,7.30
2018-12-21T23:48:43.660Z,7.20
2018-12-21T23:51:17.152Z,7.20
2018-12-21T23:54:02.432Z,7.10
2018-12-21T23:56:36.047Z,7.10
2018-12-21T23:59:20.150Z,7.10
